Nashville, Tennessee
Current Conditions -  °F | °C
As of 7:53 PM on Friday 21 Nov 2014 (Local Time) from KBNA Reporting Station
Overcast Overcast  
Wind Chill: 46°   Ceiling: 7500
Heat Index: 46°   Visibility: 10mi
Dew Point: 26°   Wind: 3mph
Humidity: 46%   Direction: 110°ESE
Pressure: 30.38"   Gusts: NA
Location:  36.11°N, 86.68°W
Report Text: KBNA 220153Z 11003KT 10SM BKN075 OVC095 08/M03 A3038 RMK AO2 SLP289 T00781033
Loading
Personal Weather Stations






























Interactive Weather Map New forecast layout! Learn more

10-Day Weather Forecast

Advertisements
Track Severe Weather on mobile